createdAt,value
2019-01-26T00:02:03.412Z,2.20
2019-01-26T00:04:32.941Z,2.20
2019-01-26T00:07:02.320Z,2.20
2019-01-26T00:09:31.672Z,2.20
2019-01-26T00:12:01.053Z,2.20
2019-01-26T00:14:30.406Z,2.30
2019-01-26T00:17:00.226Z,2.30
2019-01-26T00:19:30.041Z,2.30
2019-01-26T00:21:59.421Z,2.30
2019-01-26T00:24:28.777Z,2.40
2019-01-26T00:26:58.147Z,2.40
2019-01-26T00:29:27.841Z,2.40
2019-01-26T00:31:57.220Z,2.40
2019-01-26T00:34:26.581Z,2.40
2019-01-26T00:36:56.024Z,2.40
2019-01-26T00:39:25.392Z,2.40
2019-01-26T00:41:55.168Z,2.50
2019-01-26T00:44:24.562Z,2.50
2019-01-26T00:46:54.013Z,2.60
2019-01-26T00:49:23.433Z,2.50
2019-01-26T00:51:52.813Z,2.60
2019-01-26T00:54:22.165Z,2.60
2019-01-26T00:56:52.409Z,2.60
2019-01-26T00:59:21.852Z,2.60
2019-01-26T01:01:51.240Z,2.60
2019-01-26T01:04:20.984Z,2.60
2019-01-26T01:06:50.379Z,2.60
2019-01-26T01:09:19.810Z,2.70
2019-01-26T01:11:49.865Z,2.70
2019-01-26T01:14:19.522Z,2.70
2019-01-26T01:16:48.976Z,2.70
2019-01-26T01:19:18.329Z,2.70
2019-01-26T01:21:47.786Z,2.80
2019-01-26T01:24:17.324Z,2.90
2019-01-26T01:26:46.781Z,2.90
2019-01-26T01:29:16.169Z,3.00
2019-01-26T01:31:46.302Z,3.00
2019-01-26T01:34:15.680Z,3.00
2019-01-26T01:36:45.140Z,3.10
2019-01-26T01:39:15.330Z,3.10
2019-01-26T01:41:44.764Z,3.10
2019-01-26T01:44:14.180Z,3.10
2019-01-26T01:46:43.546Z,3.10
2019-01-26T01:49:12.925Z,3.20
2019-01-26T01:51:42.568Z,3.20
2019-01-26T01:54:12.030Z,3.30
2019-01-26T01:56:41.461Z,3.40
2019-01-26T01:59:10.848Z,3.40
2019-01-26T02:01:40.273Z,3.30
2019-01-26T02:04:10.098Z,3.40
2019-01-26T02:06:39.558Z,3.40
2019-01-26T02:09:09.833Z,3.40
2019-01-26T02:11:39.221Z,3.40
2019-01-26T02:14:08.664Z,3.40
2019-01-26T02:16:38.422Z,3.40
2019-01-26T02:19:08.051Z,3.40
2019-01-26T02:21:37.845Z,3.40
2019-01-26T02:24:07.215Z,3.40
2019-01-26T02:26:36.952Z,3.50
2019-01-26T02:29:06.335Z,3.50
2019-01-26T02:31:35.805Z,3.70
2019-01-26T02:34:05.364Z,3.70
2019-01-26T02:36:34.797Z,3.80
2019-01-26T02:39:06.436Z,3.80
2019-01-26T02:41:36.245Z,3.90
2019-01-26T02:44:05.824Z,4.00
2019-01-26T02:46:35.257Z,4.00
2019-01-26T02:49:04.723Z,4.00
2019-01-26T02:51:34.163Z,4.00
2019-01-26T02:54:03.626Z,4.10
2019-01-26T02:56:33.063Z,4.10
2019-01-26T02:59:02.881Z,4.10
2019-01-26T03:01:32.593Z,4.20
2019-01-26T03:04:02.509Z,4.20
2019-01-26T03:06:31.873Z,4.20
2019-01-26T03:09:01.406Z,4.20
2019-01-26T03:11:30.765Z,4.20
2019-01-26T03:14:00.146Z,4.20
2019-01-26T03:16:29.517Z,4.20
2019-01-26T03:18:59.009Z,4.20
2019-01-26T03:21:28.451Z,4.20
2019-01-26T03:23:57.912Z,4.30
2019-01-26T03:26:27.821Z,4.30
2019-01-26T03:28:57.252Z,4.30
2019-01-26T03:31:26.705Z,4.30
2019-01-26T03:33:56.395Z,4.30
2019-01-26T03:36:25.853Z,4.40
2019-01-26T03:38:55.232Z,4.40
2019-01-26T03:41:24.621Z,4.30
2019-01-26T03:43:54.354Z,4.30
2019-01-26T03:46:23.809Z,4.30
2019-01-26T03:48:53.175Z,4.30
2019-01-26T03:51:22.762Z,4.30
2019-01-26T03:53:52.214Z,4.30
2019-01-26T03:56:21.665Z,4.20
2019-01-26T03:58:51.027Z,4.30
2019-01-26T04:01:20.476Z,4.30
2019-01-26T04:03:50.230Z,4.40
2019-01-26T04:06:19.680Z,4.40
2019-01-26T04:08:49.037Z,4.40
2019-01-26T04:11:18.418Z,4.40
2019-01-26T04:13:48.154Z,4.50
2019-01-26T04:16:17.712Z,4.50
2019-01-26T04:18:47.574Z,4.50
2019-01-26T04:21:17.293Z,4.50
2019-01-26T04:23:46.678Z,4.50
2019-01-26T04:26:16.131Z,4.50
2019-01-26T04:28:46.211Z,4.50
2019-01-26T04:31:15.909Z,4.50
2019-01-26T04:33:45.296Z,4.50
2019-01-26T04:36:14.689Z,4.60
2019-01-26T04:38:44.435Z,4.60
2019-01-26T04:41:13.881Z,4.60
2019-01-26T04:43:43.276Z,4.60
2019-01-26T04:46:12.746Z,4.60
2019-01-26T04:48:42.559Z,4.70
2019-01-26T04:51:12.374Z,4.60
2019-01-26T04:53:41.839Z,4.60
2019-01-26T04:56:11.284Z,4.60
2019-01-26T04:58:40.829Z,4.60
2019-01-26T05:01:10.706Z,4.70
2019-01-26T05:03:40.537Z,4.70
2019-01-26T05:06:09.960Z,4.70
2019-01-26T05:08:39.341Z,4.70
2019-01-26T05:11:08.796Z,4.70
2019-01-26T05:13:38.842Z,4.80
2019-01-26T05:16:08.300Z,4.70
2019-01-26T05:18:38.325Z,4.80
2019-01-26T05:21:08.075Z,4.80
2019-01-26T05:23:37.860Z,4.80
2019-01-26T05:26:07.260Z,4.80
2019-01-26T05:28:36.637Z,4.90
2019-01-26T05:31:06.025Z,4.90
2019-01-26T05:33:35.800Z,4.90
2019-01-26T05:36:05.723Z,4.90
2019-01-26T05:38:35.239Z,5.00
2019-01-26T05:41:04.657Z,5.00
2019-01-26T05:43:34.214Z,5.00
2019-01-26T05:46:03.683Z,5.00
2019-01-26T05:48:33.457Z,5.00
2019-01-26T05:51:03.104Z,5.00
2019-01-26T05:53:32.463Z,5.10
2019-01-26T05:56:01.862Z,5.10
2019-01-26T05:58:31.306Z,5.10
2019-01-26T06:01:00.985Z,5.10
2019-01-26T06:03:31.102Z,5.10
2019-01-26T06:06:00.683Z,5.10
2019-01-26T06:08:30.123Z,5.10
2019-01-26T06:10:59.977Z,5.10
2019-01-26T06:13:29.741Z,5.20
2019-01-26T06:15:59.551Z,5.20
2019-01-26T06:18:28.997Z,5.10
2019-01-26T06:20:58.409Z,5.10
2019-01-26T06:23:28.067Z,5.20
2019-01-26T06:25:58.185Z,5.20
2019-01-26T06:28:28.306Z,5.20
2019-01-26T06:30:57.848Z,5.20
2019-01-26T06:33:27.524Z,5.20
2019-01-26T06:35:56.989Z,5.20
2019-01-26T06:38:26.836Z,5.20
2019-01-26T06:40:56.271Z,5.20
2019-01-26T06:43:26.062Z,5.30
2019-01-26T06:45:55.870Z,5.20
2019-01-26T06:48:25.337Z,5.20
2019-01-26T06:50:54.988Z,5.20
2019-01-26T06:53:24.540Z,5.20
2019-01-26T06:55:54.324Z,5.20
2019-01-26T06:58:24.446Z,5.20
2019-01-26T07:00:53.961Z,5.20
2019-01-26T07:03:23.366Z,5.20
2019-01-26T07:06:03.209Z,5.20
2019-01-26T07:08:32.596Z,5.20
2019-01-26T07:11:02.310Z,5.10
2019-01-26T07:13:31.734Z,5.20
2019-01-26T07:16:01.217Z,5.20
2019-01-26T07:18:30.692Z,5.20
2019-01-26T07:21:00.413Z,5.10
2019-01-26T07:23:29.804Z,5.20
2019-01-26T07:25:59.194Z,5.20
2019-01-26T07:28:28.596Z,5.20
2019-01-26T07:30:58.333Z,5.20
2019-01-26T07:33:27.691Z,5.20
2019-01-26T07:35:57.165Z,5.10
2019-01-26T07:38:27.256Z,5.20
2019-01-26T07:40:56.637Z,5.20
2019-01-26T07:43:26.017Z,5.20
2019-01-26T07:45:55.485Z,5.20
2019-01-26T07:48:25.236Z,5.20
2019-01-26T07:50:54.640Z,5.20
2019-01-26T07:53:24.310Z,5.20
2019-01-26T07:55:53.787Z,5.30
2019-01-26T07:58:23.482Z,5.20
2019-01-26T08:00:53.322Z,5.20
2019-01-26T08:03:22.775Z,5.20
2019-01-26T08:05:52.535Z,5.20
2019-01-26T08:08:22.007Z,5.30
2019-01-26T08:10:51.466Z,5.30
2019-01-26T08:13:21.166Z,5.30
2019-01-26T08:15:50.608Z,5.30
2019-01-26T08:18:24.009Z,5.30
2019-01-26T08:20:51.414Z,5.30
2019-01-26T08:23:20.968Z,5.30
2019-01-26T08:25:50.837Z,5.30
2019-01-26T08:28:20.572Z,5.30
2019-01-26T08:30:50.169Z,5.20
2019-01-26T08:33:19.559Z,5.20
2019-01-26T08:35:49.040Z,5.30
2019-01-26T08:38:18.508Z,5.20
2019-01-26T08:40:48.272Z,5.20
2019-01-26T08:43:18.089Z,5.20
2019-01-26T08:45:47.798Z,5.20
2019-01-26T08:48:17.228Z,5.20
2019-01-26T08:50:46.712Z,5.20
2019-01-26T08:53:16.134Z,5.20
2019-01-26T08:55:45.938Z,5.20
2019-01-26T08:58:15.452Z,5.20
2019-01-26T09:00:45.077Z,5.20
2019-01-26T09:03:32.269Z,5.10
2019-01-26T09:06:04.532Z,5.20
2019-01-26T09:08:34.343Z,5.20
2019-01-26T09:11:03.859Z,5.20
2019-01-26T09:13:33.548Z,5.30
2019-01-26T09:16:06.736Z,5.30
2019-01-26T09:18:38.929Z,5.20
2019-01-26T09:21:07.326Z,5.20
2019-01-26T09:23:36.722Z,5.30
2019-01-26T09:26:06.327Z,5.20
2019-01-26T09:28:35.957Z,5.30
2019-01-26T09:31:06.238Z,5.30
2019-01-26T09:33:35.697Z,5.30
2019-01-26T09:36:06.592Z,5.30
2019-01-26T09:38:36.310Z,5.30
2019-01-26T09:41:10.077Z,5.30
2019-01-26T09:43:36.892Z,5.30
2019-01-26T09:46:06.372Z,5.30
2019-01-26T09:48:35.908Z,5.30
2019-01-26T09:51:05.860Z,5.30
2019-01-26T09:53:35.334Z,5.40
2019-01-26T09:56:05.381Z,5.40
2019-01-26T09:58:34.773Z,5.40
2019-01-26T10:01:04.760Z,5.40
2019-01-26T10:03:34.221Z,5.40
2019-01-26T10:06:03.654Z,5.40
2019-01-26T10:08:33.057Z,5.40
2019-01-26T10:11:02.453Z,5.40
2019-01-26T10:13:31.914Z,5.40
2019-01-26T10:16:01.373Z,5.40
2019-01-26T10:18:30.937Z,5.40
2019-01-26T10:21:00.610Z,5.50
2019-01-26T10:23:30.353Z,5.50
2019-01-26T10:25:59.724Z,5.50
2019-01-26T10:28:29.208Z,5.50
2019-01-26T10:31:00.628Z,5.50
2019-01-26T10:33:30.035Z,5.50
2019-01-26T10:36:18.394Z,5.50
2019-01-26T10:38:54.875Z,5.50
2019-01-26T10:41:33.584Z,5.50
2019-01-26T10:44:03.357Z,5.50
2019-01-26T10:46:32.729Z,5.60
2019-01-26T10:49:02.138Z,5.60
2019-01-26T10:51:31.593Z,5.70
2019-01-26T10:54:01.064Z,5.70
2019-01-26T10:56:30.503Z,5.70
2019-01-26T10:58:59.974Z,5.70
2019-01-26T11:01:29.426Z,5.70
2019-01-26T11:03:58.812Z,5.80
2019-01-26T11:06:28.249Z,5.80
2019-01-26T11:08:57.724Z,5.80
2019-01-26T11:11:27.088Z,5.80
2019-01-26T11:13:56.826Z,5.80
2019-01-26T11:16:26.286Z,5.90
2019-01-26T11:18:56.147Z,5.90
2019-01-26T11:21:25.601Z,5.90
2019-01-26T11:23:55.383Z,5.90
2019-01-26T11:26:25.142Z,5.90
2019-01-26T11:28:54.881Z,6.00
2019-01-26T11:31:24.562Z,5.90
2019-01-26T11:33:54.296Z,6.00
2019-01-26T11:36:23.768Z,6.00
2019-01-26T11:38:53.490Z,6.00
2019-01-26T11:41:22.957Z,6.10
2019-01-26T11:43:52.703Z,6.10
2019-01-26T11:46:27.997Z,6.10
2019-01-26T11:48:58.737Z,6.10
2019-01-26T11:51:41.244Z,6.10
2019-01-26T11:54:10.747Z,6.10
2019-01-26T11:56:59.105Z,6.10
2019-01-26T11:59:28.510Z,6.10
2019-01-26T12:02:29.723Z,6.20
2019-01-26T12:05:02.953Z,6.20
2019-01-26T12:07:34.953Z,6.20
2019-01-26T12:10:05.592Z,6.20
2019-01-26T12:12:35.012Z,6.20
2019-01-26T12:15:05.395Z,6.20
2019-01-26T12:17:36.584Z,6.20
2019-01-26T12:20:08.810Z,6.20
2019-01-26T12:22:38.290Z,6.20
2019-01-26T12:25:09.148Z,6.30
2019-01-26T12:27:38.910Z,6.30
2019-01-26T12:30:21.597Z,6.30
2019-01-26T12:32:57.562Z,6.30
2019-01-26T12:35:28.141Z,6.40
2019-01-26T12:37:58.306Z,6.40
2019-01-26T12:40:28.334Z,6.50
2019-01-26T12:42:59.269Z,6.50
2019-01-26T12:45:28.886Z,6.60
2019-01-26T12:47:58.345Z,6.60
2019-01-26T12:50:27.813Z,6.60
2019-01-26T12:52:57.618Z,6.60
2019-01-26T12:55:27.060Z,6.60
2019-01-26T12:57:56.539Z,6.60
2019-01-26T13:00:26.420Z,6.60
2019-01-26T13:02:56.420Z,6.70
2019-01-26T13:05:26.457Z,6.70
2019-01-26T13:07:55.860Z,6.70
2019-01-26T13:10:29.562Z,6.80
2019-01-26T13:12:59.265Z,6.80
2019-01-26T13:15:29.157Z,6.80
2019-01-26T13:17:58.557Z,6.80
2019-01-26T13:20:28.328Z,6.80
2019-01-26T13:22:57.893Z,6.80
2019-01-26T13:25:27.368Z,6.80
2019-01-26T13:27:57.207Z,6.70
2019-01-26T13:30:26.612Z,6.60
2019-01-26T13:32:56.080Z,6.60
2019-01-26T13:35:25.456Z,6.50
2019-01-26T13:37:54.856Z,6.50
2019-01-26T13:40:24.264Z,6.50
2019-01-26T13:42:53.640Z,6.40
2019-01-26T13:45:23.149Z,6.30
2019-01-26T13:47:52.953Z,6.40
2019-01-26T13:50:22.445Z,6.30
2019-01-26T13:52:52.268Z,6.30
2019-01-26T13:55:22.088Z,6.30
2019-01-26T13:57:51.806Z,6.30
2019-01-26T14:00:23.870Z,6.20
2019-01-26T14:02:53.388Z,6.20
2019-01-26T14:05:22.816Z,6.30
2019-01-26T14:07:52.595Z,6.20
2019-01-26T14:10:24.335Z,6.20
2019-01-26T14:12:53.703Z,6.20
2019-01-26T14:15:23.601Z,6.20
2019-01-26T14:17:53.105Z,6.20
2019-01-26T14:20:24.101Z,6.20
2019-01-26T14:22:54.016Z,6.10
2019-01-26T14:25:23.551Z,6.20
2019-01-26T14:27:53.279Z,6.20
2019-01-26T14:30:28.176Z,6.10
2019-01-26T14:32:58.390Z,6.10
2019-01-26T14:35:27.829Z,6.10
2019-01-26T14:37:58.391Z,6.10
2019-01-26T14:40:28.277Z,6.10
2019-01-26T14:42:58.187Z,6.10
2019-01-26T14:45:29.223Z,6.10
2019-01-26T14:47:58.982Z,6.00
2019-01-26T14:50:28.795Z,6.00
2019-01-26T14:52:59.293Z,6.00
2019-01-26T14:55:29.723Z,6.00
2019-01-26T14:57:59.315Z,6.00
2019-01-26T15:00:30.732Z,6.00
2019-01-26T15:03:00.442Z,6.00
2019-01-26T15:05:30.151Z,6.00
2019-01-26T15:08:00.692Z,6.00
2019-01-26T15:10:30.089Z,6.00
2019-01-26T15:12:59.925Z,6.00
2019-01-26T15:15:29.324Z,6.00
2019-01-26T15:17:58.690Z,6.00
2019-01-26T15:20:30.977Z,6.00
2019-01-26T15:23:00.333Z,6.00
2019-01-26T15:25:29.762Z,6.00
2019-01-26T15:27:59.205Z,6.00
2019-01-26T15:30:30.827Z,6.00
2019-01-26T15:33:00.280Z,6.00
2019-01-26T15:35:29.729Z,6.00
2019-01-26T15:37:59.116Z,6.00
2019-01-26T15:40:28.925Z,6.00
2019-01-26T15:42:58.772Z,6.00
2019-01-26T15:45:30.931Z,6.00
2019-01-26T15:48:00.755Z,6.00
2019-01-26T15:50:30.197Z,6.00
2019-01-26T15:52:59.682Z,6.00
2019-01-26T15:55:29.148Z,5.90
2019-01-26T15:57:58.532Z,6.00
2019-01-26T16:00:30.420Z,6.00
2019-01-26T16:03:00.149Z,6.00
2019-01-26T16:05:29.539Z,6.00
2019-01-26T16:07:59.279Z,6.00
2019-01-26T16:10:29.064Z,6.00
2019-01-26T16:12:58.430Z,6.00
2019-01-26T16:15:30.030Z,6.00
2019-01-26T16:17:59.800Z,5.90
2019-01-26T16:20:29.751Z,5.90
2019-01-26T16:22:59.144Z,5.90
2019-01-26T16:25:28.998Z,5.90
2019-01-26T16:27:58.438Z,5.90
2019-01-26T16:30:29.834Z,5.90
2019-01-26T16:32:59.744Z,5.90
2019-01-26T16:35:29.557Z,5.90
2019-01-26T16:37:59.261Z,5.90
2019-01-26T16:40:31.153Z,5.80
2019-01-26T16:43:00.595Z,5.90
2019-01-26T16:45:32.549Z,5.90
2019-01-26T16:48:02.052Z,5.90
2019-01-26T16:50:31.948Z,5.90
2019-01-26T16:53:01.349Z,5.80
2019-01-26T16:55:31.128Z,5.90
2019-01-26T16:58:00.599Z,5.90
2019-01-26T17:00:41.808Z,5.90
2019-01-26T17:03:11.611Z,5.80
2019-01-26T17:05:41.153Z,5.80
2019-01-26T17:08:10.980Z,5.80
2019-01-26T17:10:40.387Z,5.80
2019-01-26T17:13:10.244Z,5.80
2019-01-26T17:15:39.915Z,5.70
2019-01-26T17:18:13.838Z,5.70
2019-01-26T17:20:42.038Z,5.70
2019-01-26T17:23:11.764Z,5.60
2019-01-26T17:25:41.192Z,5.50
2019-01-26T17:28:10.598Z,5.50
2019-01-26T17:30:41.241Z,5.50
2019-01-26T17:33:10.913Z,5.50
2019-01-26T17:35:40.292Z,5.50
2019-01-26T17:38:09.859Z,5.40
2019-01-26T17:40:39.219Z,5.40
2019-01-26T17:43:08.605Z,5.40
2019-01-26T17:45:37.964Z,5.40
2019-01-26T17:48:08.751Z,5.40
2019-01-26T17:50:42.117Z,5.40
2019-01-26T17:53:09.294Z,5.40
2019-01-26T17:55:39.097Z,5.30
2019-01-26T17:58:08.834Z,5.30
2019-01-26T18:00:46.081Z,5.30
2019-01-26T18:03:16.244Z,5.30
2019-01-26T18:05:46.067Z,5.30
2019-01-26T18:08:16.584Z,5.30
2019-01-26T18:10:46.909Z,5.20
2019-01-26T18:13:16.264Z,5.20
2019-01-26T18:15:45.940Z,5.20
2019-01-26T18:18:15.345Z,5.20
2019-01-26T18:20:49.090Z,5.10
2019-01-26T18:23:19.581Z,5.20
2019-01-26T18:25:49.904Z,5.20
2019-01-26T18:28:19.264Z,5.20
2019-01-26T18:30:49.300Z,5.20
2019-01-26T18:33:18.665Z,5.20
2019-01-26T18:35:48.040Z,5.20
2019-01-26T18:38:17.411Z,5.20
2019-01-26T18:40:47.586Z,5.10
2019-01-26T18:43:17.029Z,5.10
2019-01-26T18:45:46.766Z,5.10
2019-01-26T18:48:16.296Z,5.20
2019-01-26T18:50:47.584Z,5.20
2019-01-26T18:53:17.317Z,5.10
2019-01-26T18:55:46.753Z,5.20
2019-01-26T18:58:16.297Z,5.20
2019-01-26T19:00:50.645Z,5.20
2019-01-26T19:04:07.553Z,5.20
2019-01-26T19:06:37.290Z,5.20
2019-01-26T19:09:10.452Z,5.20
2019-01-26T19:11:39.816Z,5.20
2019-01-26T19:14:09.198Z,5.20
2019-01-26T19:16:38.669Z,5.30
2019-01-26T19:19:08.305Z,5.30
2019-01-26T19:21:37.788Z,5.30
2019-01-26T19:24:08.025Z,5.30
2019-01-26T19:26:37.708Z,5.30
2019-01-26T19:29:07.480Z,5.40
2019-01-26T19:31:37.539Z,5.30
2019-01-26T19:34:07.277Z,5.40
2019-01-26T19:36:36.709Z,5.40
2019-01-26T19:39:08.625Z,5.50
2019-01-26T19:41:38.637Z,5.50
2019-01-26T19:44:08.345Z,5.40
2019-01-26T19:46:37.809Z,5.40
2019-01-26T19:49:07.175Z,5.40
2019-01-26T19:51:36.871Z,5.40
2019-01-26T19:54:07.473Z,5.40
2019-01-26T19:56:37.408Z,5.40
2019-01-26T19:59:06.779Z,5.40
2019-01-26T20:01:36.233Z,5.40
2019-01-26T20:04:06.674Z,5.40
2019-01-26T20:06:36.561Z,5.40
2019-01-26T20:09:09.555Z,5.40
2019-01-26T20:11:39.765Z,5.40
2019-01-26T20:14:09.132Z,5.40
2019-01-26T20:16:38.612Z,5.50
2019-01-26T20:19:07.972Z,5.50
2019-01-26T20:21:37.989Z,5.50
2019-01-26T20:24:07.446Z,5.50
2019-01-26T20:26:36.799Z,5.50
2019-01-26T20:29:06.496Z,5.50
2019-01-26T20:31:35.896Z,5.50
2019-01-26T20:34:05.643Z,5.50
2019-01-26T20:36:34.997Z,5.50
2019-01-26T20:39:07.807Z,5.50
2019-01-26T20:41:37.617Z,5.40
2019-01-26T20:44:07.313Z,5.40
2019-01-26T20:46:36.754Z,5.30
2019-01-26T20:49:06.284Z,5.40
2019-01-26T20:51:35.755Z,5.40
2019-01-26T20:54:05.649Z,5.30
2019-01-26T20:56:35.428Z,5.30
2019-01-26T20:59:05.491Z,5.30
2019-01-26T21:01:34.916Z,5.30
2019-01-26T21:04:04.277Z,5.20
2019-01-26T21:06:33.765Z,5.20
2019-01-26T21:09:05.009Z,5.10
2019-01-26T21:11:34.768Z,5.10
2019-01-26T21:14:04.617Z,5.10
2019-01-26T21:16:34.048Z,5.00
2019-01-26T21:19:03.480Z,5.10
2019-01-26T21:21:32.856Z,5.10
2019-01-26T21:24:02.288Z,5.10
2019-01-26T21:26:31.670Z,5.10
2019-01-26T21:29:01.388Z,5.20
2019-01-26T21:31:30.949Z,5.20
2019-01-26T21:34:00.312Z,5.30
2019-01-26T21:36:29.781Z,5.30
2019-01-26T21:38:59.577Z,5.30
2019-01-26T21:41:28.951Z,5.20
2019-01-26T21:43:58.669Z,5.20
2019-01-26T21:46:28.133Z,5.20
2019-01-26T21:48:57.489Z,5.20
2019-01-26T21:51:26.872Z,5.10
2019-01-26T21:53:56.594Z,5.10
2019-01-26T21:56:26.014Z,5.10
2019-01-26T21:58:55.733Z,5.10
2019-01-26T22:01:25.188Z,5.10
2019-01-26T22:03:54.577Z,5.20
2019-01-26T22:06:23.934Z,5.10
2019-01-26T22:08:53.381Z,5.20
2019-01-26T22:11:22.749Z,5.20
2019-01-26T22:13:52.127Z,5.30
2019-01-26T22:16:21.573Z,5.30
2019-01-26T22:18:51.316Z,5.30
2019-01-26T22:21:21.001Z,5.30
2019-01-26T22:23:50.451Z,5.30
2019-01-26T22:26:20.220Z,5.30
2019-01-26T22:28:49.591Z,5.30
2019-01-26T22:31:18.957Z,5.30
2019-01-26T22:33:49.040Z,5.30
2019-01-26T22:36:18.471Z,5.30
2019-01-26T22:38:48.257Z,5.30
2019-01-26T22:41:17.685Z,5.30
2019-01-26T22:43:47.137Z,5.30
2019-01-26T22:46:16.493Z,5.30
2019-01-26T22:48:45.857Z,5.20
2019-01-26T22:51:15.296Z,5.20
2019-01-26T22:53:44.976Z,5.20
2019-01-26T22:56:14.428Z,5.20
2019-01-26T22:58:44.035Z,5.20
2019-01-26T23:01:39.032Z,5.10
2019-01-26T23:04:50.214Z,5.10
2019-01-26T23:07:35.351Z,5.10
2019-01-26T23:10:43.352Z,5.10
2019-01-26T23:13:44.704Z,5.10
2019-01-26T23:16:38.181Z,5.10
2019-01-26T23:19:16.367Z,5.10
2019-01-26T23:22:21.596Z,5.10
2019-01-26T23:25:27.495Z,5.10
2019-01-26T23:28:50.405Z,5.10
2019-01-26T23:31:21.719Z,5.10
2019-01-26T23:33:52.705Z,5.10
2019-01-26T23:36:22.549Z,5.10
2019-01-26T23:38:51.938Z,5.10
2019-01-26T23:41:21.777Z,5.10
2019-01-26T23:43:51.256Z,5.10
2019-01-26T23:46:20.699Z,5.20
2019-01-26T23:48:50.380Z,5.20
2019-01-26T23:51:19.732Z,5.20
2019-01-26T23:53:49.103Z,5.20
2019-01-26T23:56:18.461Z,5.20
2019-01-26T23:58:47.913Z,5.20
